Time;durP1;ratioP1;P1;durP2;ratioP2;P2;SDS_P1;SDS_P2;PMS_P1;PMS_P2;Temp;Humidity;BMP_temperature;BMP_pressure;BME280_temperature;BME280_humidity;BME280_pressure;Samples;Min_cycle;Max_cycle;Signal;HPM_P1;HPM_P2
2022/01/22 00:00:48;;;;;;;4.93;3.80;;;5.10;99.90;;;;;;4977192;28;20197;-73
2022/01/22 00:03:14;;;;;;;4.90;3.53;;;5.20;99.90;;;;;;4975885;28;20248;-73
2022/01/22 00:05:40;;;;;;;4.53;3.53;;;5.20;99.90;;;;;;4969705;28;20204;-72
2022/01/22 00:08:06;;;;;;;5.80;3.43;;;5.20;99.90;;;;;;4972264;28;20197;-73
2022/01/22 00:10:32;;;;;;;5.90;3.80;;;5.20;99.90;;;;;;4975407;28;20267;-72
2022/01/22 00:15:29;;;;;;;4.57;3.50;;;5.20;99.90;;;;;;4974509;28;20602;-73
2022/01/22 00:17:56;;;;;;;5.97;4.20;;;5.20;99.90;;;;;;4975416;28;20219;-74
2022/01/22 00:20:24;;;;;;;5.57;3.97;;;5.10;99.90;;;;;;4977503;28;20224;-73
2022/01/22 00:22:50;;;;;;;6.90;3.63;;;5.10;99.90;;;;;;4977078;28;20272;-73
2022/01/22 00:25:18;;;;;;;4.83;3.83;;;5.10;99.90;;;;;;4977857;28;20205;-73
2022/01/22 00:27:45;;;;;;;6.33;3.70;;;5.10;99.90;;;;;;4975817;28;20188;-72
2022/01/22 00:30:14;;;;;;;5.90;4.20;;;5.10;99.90;;;;;;4976562;28;20201;-72
2022/01/22 00:32:39;;;;;;;5.83;3.63;;;5.10;99.90;;;;;;4979409;28;20188;-72
2022/01/22 00:35:07;;;;;;;4.97;3.87;;;5.10;99.90;;;;;;4975756;28;20224;-72
2022/01/22 00:37:34;;;;;;;5.83;3.77;;;5.20;99.90;;;;;;4974769;28;20196;-72
2022/01/22 00:40:00;;;;;;;5.00;3.80;;;5.20;99.90;;;;;;4977980;28;20223;-73
2022/01/22 00:42:26;;;;;;;6.30;4.00;;;5.20;99.90;;;;;;4977221;28;20214;-73
2022/01/22 00:44:52;;;;;;;5.73;4.10;;;5.10;99.90;;;;;;4974876;28;20244;-72
2022/01/22 00:47:18;;;;;;;7.27;4.70;;;5.20;99.90;;;;;;4978232;28;20230;-73
2022/01/22 00:49:45;;;;;;;5.03;3.67;;;5.20;99.90;;;;;;4971570;28;20228;-73
2022/01/22 00:52:10;;;;;;;5.47;4.43;;;5.20;99.90;;;;;;4982323;28;20196;-72
2022/01/22 00:54:36;;;;;;;7.30;4.47;;;5.20;99.90;;;;;;4971096;28;20204;-72
2022/01/22 00:57:02;;;;;;;6.43;4.00;;;5.20;99.90;;;;;;4975685;28;20724;-72
2022/01/22 00:59:28;;;;;;;5.20;4.03;;;5.20;99.90;;;;;;4977303;28;20214;-72
2022/01/22 01:01:53;;;;;;;6.03;4.17;;;5.20;99.90;;;;;;4972684;28;20584;-72
2022/01/22 01:04:19;;;;;;;5.70;4.30;;;5.20;99.90;;;;;;4978800;28;20640;-73
2022/01/22 01:06:45;;;;;;;5.57;4.10;;;5.20;99.90;;;;;;4973824;28;20224;-74
2022/01/22 01:09:12;;;;;;;5.90;3.57;;;5.20;99.90;;;;;;4978378;28;20192;-74
2022/01/22 01:11:45;;;;;;;6.73;4.00;;;5.20;99.90;;;;;;4973699;28;20274;-73
2022/01/22 01:14:16;;;;;;;5.67;4.30;;;5.20;99.90;;;;;;4975806;28;20219;-74
2022/01/22 01:33:13;;;;;;;6.03;3.70;;;5.30;99.90;;;;;;4973960;28;20223;-73
2022/01/22 01:35:40;;;;;;;4.97;3.70;;;5.20;99.90;;;;;;4974477;28;20227;-73
2022/01/22 01:38:07;;;;;;;5.40;3.50;;;5.30;99.90;;;;;;4975759;28;20188;-73
2022/01/22 01:40:36;;;;;;;5.37;3.43;;;5.30;99.90;;;;;;4971575;28;20299;-73
2022/01/22 01:43:23;;;;;;;5.47;3.43;;;5.30;99.90;;;;;;4975402;28;20207;-74
2022/01/22 01:45:49;;;;;;;5.23;3.47;;;5.30;99.90;;;;;;4974661;28;20203;-73
2022/01/22 01:48:20;;;;;;;5.20;3.70;;;5.30;99.90;;;;;;4975262;28;20189;-75
2022/01/22 01:50:45;;;;;;;5.83;3.83;;;5.30;99.90;;;;;;4976550;28;20264;-73
2022/01/22 01:53:19;;;;;;;7.70;3.97;;;5.30;99.90;;;;;;4980408;28;20719;-73
2022/01/22 01:58:25;;;;;;;4.87;3.60;;;5.30;99.90;;;;;;4970683;28;20193;-75
2022/01/22 02:00:51;;;;;;;6.43;3.40;;;5.40;99.90;;;;;;4976139;28;20181;-73
2022/01/22 02:03:18;;;;;;;5.70;3.60;;;5.40;99.90;;;;;;4976369;28;20649;-71
2022/01/22 02:05:44;;;;;;;6.50;4.00;;;5.30;99.90;;;;;;4969458;28;20217;-77
2022/01/22 02:08:12;;;;;;;5.87;4.10;;;5.30;99.90;;;;;;4976512;28;20264;-75
2022/01/22 02:10:44;;;;;;;6.47;4.37;;;5.30;99.90;;;;;;4972813;28;20204;-73
2022/01/22 02:24:10;;;;;;;6.43;4.23;;;5.40;99.90;;;;;;4974386;28;20219;-73
2022/01/22 02:26:36;;;;;;;6.87;4.60;;;5.40;99.90;;;;;;4973628;28;20676;-73
2022/01/22 02:29:02;;;;;;;6.50;4.30;;;5.40;99.90;;;;;;4976995;28;20188;-72
2022/01/22 02:34:17;;;;;;;8.07;4.27;;;5.40;99.90;;;;;;4974360;28;20199;-71
2022/01/22 02:36:57;;;;;;;6.50;3.60;;;5.40;99.90;;;;;;4956576;28;20585;-72
2022/01/22 02:39:36;;;;;;;5.90;3.97;;;5.40;99.90;;;;;;4975707;28;20172;-72
2022/01/22 02:42:02;;;;;;;6.50;4.27;;;5.40;99.90;;;;;;4975909;28;20251;-72
2022/01/22 02:44:44;;;;;;;5.83;3.97;;;5.40;99.90;;;;;;4978014;28;20681;-73
2022/01/22 02:47:10;;;;;;;6.20;4.20;;;5.40;99.90;;;;;;4971706;28;20187;-72
2022/01/22 02:49:36;;;;;;;5.57;4.30;;;5.40;99.90;;;;;;4956851;28;20180;-74
2022/01/22 02:52:07;;;;;;;5.10;3.77;;;5.40;99.90;;;;;;4972021;28;20246;-74
2022/01/22 02:54:34;;;;;;;5.17;3.70;;;5.50;99.90;;;;;;4970497;28;20247;-73
2022/01/22 02:57:00;;;;;;;5.07;3.73;;;5.50;99.90;;;;;;4972475;28;20200;-73
2022/01/22 02:59:26;;;;;;;4.27;3.53;;;5.50;99.90;;;;;;4977582;28;20199;-73
2022/01/22 03:01:52;;;;;;;5.07;3.40;;;5.50;99.90;;;;;;4971630;28;20620;-73
2022/01/22 03:04:18;;;;;;;5.27;3.30;;;5.50;99.90;;;;;;4974655;28;20229;-73
2022/01/22 03:06:46;;;;;;;3.53;2.50;;;5.40;99.90;;;;;;4977681;28;20188;-74
2022/01/22 03:09:14;;;;;;;3.43;2.40;;;5.50;99.90;;;;;;4978940;28;20235;-73
2022/01/22 03:12:11;;;;;;;5.67;2.90;;;5.50;99.90;;;;;;4978651;28;20184;-74
2022/01/22 03:17:49;;;;;;;3.53;2.43;;;5.50;99.90;;;;;;4977359;28;20258;-73
2022/01/22 03:27:57;;;;;;;3.93;2.47;;;5.50;99.90;;;;;;4975811;28;21352;-73
2022/01/22 03:30:22;;;;;;;2.97;1.90;;;5.50;99.90;;;;;;4973808;28;20185;-73
2022/01/22 03:32:52;;;;;;;4.03;2.50;;;5.50;99.90;;;;;;4974883;28;20636;-73
2022/01/22 03:37:45;;;;;;;2.43;2.10;;;5.50;99.90;;;;;;4972774;28;20192;-73
2022/01/22 03:40:13;;;;;;;2.40;1.80;;;5.50;99.90;;;;;;4975044;28;20238;-74
2022/01/22 03:42:40;;;;;;;3.03;2.30;;;5.50;99.90;;;;;;4979452;28;20281;-74
2022/01/22 03:45:08;;;;;;;3.13;2.20;;;5.50;99.90;;;;;;4976976;28;20295;-74
2022/01/22 03:47:35;;;;;;;4.23;1.90;;;5.50;99.90;;;;;;4976740;28;20183;-73
2022/01/22 03:50:01;;;;;;;3.07;2.20;;;5.50;99.90;;;;;;4976972;28;20539;-73
2022/01/22 03:52:26;;;;;;;3.03;2.00;;;5.50;99.90;;;;;;4975527;28;20195;-73
2022/01/22 03:54:52;;;;;;;3.43;2.07;;;5.50;99.90;;;;;;4975459;28;20580;-73
2022/01/22 03:57:18;;;;;;;3.70;2.10;;;5.50;99.90;;;;;;4975504;28;20181;-73
2022/01/22 03:59:45;;;;;;;2.60;1.93;;;5.50;99.90;;;;;;4977477;28;20185;-72
2022/01/22 04:04:53;;;;;;;3.83;2.10;;;5.50;99.90;;;;;;4976915;28;20295;-74
2022/01/22 04:10:07;;;;;;;1.80;1.37;;;5.50;99.90;;;;;;4976712;28;20280;-73
2022/01/22 04:13:00;;;;;;;2.63;1.80;;;5.50;99.90;;;;;;4975909;28;20272;-72
2022/01/22 04:15:23;;;;;;;2.80;1.73;;;5.50;99.90;;;;;;4973487;28;20197;-73
2022/01/22 04:25:50;;;;;;;2.67;1.50;;;5.60;99.90;;;;;;4974511;28;20188;-73
2022/01/22 04:28:16;;;;;;;1.77;1.30;;;5.60;99.90;;;;;;4972211;28;20216;-72
2022/01/22 04:30:42;;;;;;;3.03;1.87;;;5.60;99.90;;;;;;4971331;28;20185;-72
2022/01/22 04:33:07;;;;;;;2.33;1.60;;;5.60;99.90;;;;;;4975229;28;20180;-72
2022/01/22 04:35:33;;;;;;;2.20;1.60;;;5.60;99.90;;;;;;4980899;28;20184;-72
2022/01/22 04:37:59;;;;;;;2.83;1.60;;;5.50;99.90;;;;;;4977095;28;20224;-72
2022/01/22 04:40:25;;;;;;;1.20;1.10;;;5.60;99.90;;;;;;4972052;28;20207;-72
2022/01/22 04:42:50;;;;;;;1.87;1.37;;;5.60;99.90;;;;;;4980513;28;20552;-73
2022/01/22 04:48:08;;;;;;;2.30;1.40;;;5.60;99.90;;;;;;4975863;28;20818;-71
2022/01/22 04:55:44;;;;;;;2.03;1.40;;;5.50;99.90;;;;;;4971837;28;20267;-72
2022/01/22 04:58:10;;;;;;;2.40;1.70;;;5.60;99.90;;;;;;4978770;28;20196;-74
2022/01/22 05:00:38;;;;;;;3.37;1.80;;;5.60;99.90;;;;;;4975222;28;20194;-73
2022/01/22 05:03:05;;;;;;;2.93;1.70;;;5.50;99.90;;;;;;4976640;28;20572;-75
2022/01/22 05:05:31;;;;;;;1.93;1.60;;;5.50;99.90;;;;;;4977726;28;20192;-71
2022/01/22 05:07:57;;;;;;;2.80;1.80;;;5.60;99.90;;;;;;4975190;28;20621;-70
2022/01/22 05:10:22;;;;;;;2.33;1.87;;;5.60;99.90;;;;;;4975325;28;20173;-74
2022/01/22 05:12:49;;;;;;;2.13;1.77;;;5.60;99.90;;;;;;4975203;28;20718;-73
2022/01/22 05:15:17;;;;;;;4.10;1.77;;;5.50;99.90;;;;;;4970949;28;20200;-74
2022/01/22 05:17:44;;;;;;;2.17;1.80;;;5.50;99.90;;;;;;4982122;28;20184;-72
2022/01/22 05:20:20;;;;;;;2.67;1.80;;;5.60;99.90;;;;;;4975093;28;20183;-71
2022/01/22 05:23:02;;;;;;;3.60;2.10;;;5.60;99.90;;;;;;4958287;28;20211;-71
2022/01/22 05:25:37;;;;;;;3.07;2.10;;;5.50;99.90;;;;;;4972929;28;20670;-70
2022/01/22 05:38:34;;;;;;;2.47;1.57;;;5.60;99.90;;;;;;4973251;28;20191;-72
2022/01/22 05:40:59;;;;;;;3.07;1.37;;;5.60;99.90;;;;;;4974057;28;20559;-73
2022/01/22 05:43:25;;;;;;;2.83;1.83;;;5.60;99.90;;;;;;4974937;28;20220;-71
2022/01/22 05:45:51;;;;;;;6.03;2.77;;;5.60;99.90;;;;;;4971101;28;20557;-73
2022/01/22 05:48:17;;;;;;;3.67;2.70;;;5.70;99.90;;;;;;4977148;28;20211;-71
2022/01/22 05:50:50;;;;;;;3.67;2.30;;;5.60;99.90;;;;;;4974208;28;20204;-72
2022/01/22 06:01:06;;;;;;;2.70;1.77;;;5.60;99.90;;;;;;4972037;28;20238;-71
2022/01/22 06:03:32;;;;;;;3.53;2.50;;;5.60;99.90;;;;;;4935436;28;1097770;-72
2022/01/22 06:05:57;;;;;;;3.00;1.30;;;5.70;99.90;;;;;;4977827;28;20580;-71
2022/01/22 06:08:29;;;;;;;2.80;1.57;;;5.80;99.90;;;;;;4976487;28;20592;-71
2022/01/22 06:10:56;;;;;;;2.73;1.70;;;5.80;99.90;;;;;;4973503;28;20699;-71
2022/01/22 06:13:29;;;;;;;3.87;1.93;;;5.70;99.90;;;;;;4973370;28;20209;-72
2022/01/22 06:15:54;;;;;;;2.37;1.67;;;5.70;99.90;;;;;;4978047;28;20188;-72
2022/01/22 06:18:20;;;;;;;3.00;2.10;;;5.70;99.90;;;;;;4971818;28;20180;-72
2022/01/22 06:20:46;;;;;;;2.10;1.37;;;5.60;99.90;;;;;;4974705;28;20567;-72
2022/01/22 06:23:11;;;;;;;1.97;1.60;;;5.70;99.90;;;;;;4973353;28;20212;-72
2022/01/22 06:25:37;;;;;;;1.60;1.30;;;5.60;99.90;;;;;;4974613;28;20185;-71
2022/01/22 06:28:03;;;;;;;2.23;1.53;;;5.60;99.90;;;;;;4974247;28;20664;-76
2022/01/22 06:30:29;;;;;;;1.90;1.33;;;5.60;99.90;;;;;;4958872;28;20559;-73
2022/01/22 06:32:55;;;;;;;3.53;1.07;;;5.60;99.90;;;;;;4974156;28;20196;-72
2022/01/22 06:35:20;;;;;;;1.47;1.17;;;5.50;99.90;;;;;;4974787;28;20193;-73
2022/01/22 06:37:46;;;;;;;1.47;1.17;;;5.50;99.90;;;;;;4973711;28;20200;-73
2022/01/22 06:42:37;;;;;;;2.20;1.53;;;5.60;99.90;;;;;;4976851;28;20212;-74
2022/01/22 06:45:05;;;;;;;2.70;1.63;;;5.50;99.90;;;;;;4974183;28;20243;-73
2022/01/22 06:47:32;;;;;;;2.33;1.50;;;5.50;99.90;;;;;;4977464;28;20191;-71
2022/01/22 06:49:58;;;;;;;3.10;1.90;;;5.60;99.90;;;;;;4976637;28;20237;-72
2022/01/22 06:52:24;;;;;;;3.37;2.27;;;5.50;99.90;;;;;;4978415;28;20271;-72
2022/01/22 06:54:49;;;;;;;3.40;2.17;;;5.60;99.90;;;;;;4979613;28;20207;-72
2022/01/22 06:57:15;;;;;;;2.40;1.40;;;5.50;99.90;;;;;;4976686;28;20216;-73
2022/01/22 06:59:41;;;;;;;2.20;1.50;;;5.60;99.90;;;;;;4975282;28;20664;-72
2022/01/22 07:02:07;;;;;;;3.63;1.90;;;5.60;99.90;;;;;;4983031;28;20216;-74
2022/01/22 07:04:36;;;;;;;2.90;1.77;;;5.60;99.90;;;;;;4979708;28;20589;-72
2022/01/22 07:07:04;;;;;;;3.23;1.67;;;5.60;99.90;;;;;;4976203;28;20212;-73
2022/01/22 07:09:30;;;;;;;3.30;1.90;;;5.60;99.90;;;;;;4976565;28;20556;-72
2022/01/22 07:11:55;;;;;;;3.87;1.90;;;5.60;99.90;;;;;;4974949;28;20204;-72
2022/01/22 07:14:21;;;;;;;4.93;2.37;;;5.60;99.90;;;;;;4971501;28;20212;-72
2022/01/22 07:16:47;;;;;;;5.73;2.90;;;5.50;99.90;;;;;;4974940;28;20659;-72
2022/01/22 07:19:17;;;;;;;4.50;3.10;;;5.50;99.90;;;;;;4976841;28;20199;-73
2022/01/22 07:21:46;;;;;;;5.10;2.77;;;5.60;99.90;;;;;;4976844;28;20241;-72
2022/01/22 07:24:26;;;;;;;5.43;2.70;;;5.60;99.90;;;;;;4978038;28;20209;-71
2022/01/22 07:26:55;;;;;;;3.73;2.30;;;5.50;99.90;;;;;;4979355;28;20184;-72
2022/01/22 07:29:21;;;;;;;5.50;3.03;;;5.50;99.90;;;;;;4980775;28;20250;-73
2022/01/22 07:31:47;;;;;;;3.53;2.53;;;5.50;99.90;;;;;;4979374;28;20547;-72
2022/01/22 07:34:14;;;;;;;4.67;2.73;;;5.60;99.90;;;;;;4979651;28;20209;-73
2022/01/22 07:36:40;;;;;;;4.07;2.17;;;5.60;99.90;;;;;;4979360;28;20250;-72
2022/01/22 07:39:06;;;;;;;4.77;2.47;;;5.60;99.90;;;;;;4978858;28;20192;-75
2022/01/22 07:41:33;;;;;;;2.87;1.97;;;5.50;99.90;;;;;;4978153;28;20199;-72
2022/01/22 07:43:58;;;;;;;2.70;1.80;;;5.50;99.90;;;;;;4979128;28;20251;-72
2022/01/22 07:46:24;;;;;;;3.10;1.87;;;5.60;99.90;;;;;;4979772;28;20184;-72
2022/01/22 07:48:50;;;;;;;4.17;2.17;;;5.60;99.90;;;;;;4980597;28;20571;-72
2022/01/22 07:51:17;;;;;;;6.20;2.97;;;5.60;99.90;;;;;;4979496;28;20195;-73
2022/01/22 07:53:46;;;;;;;6.13;2.83;;;5.50;99.90;;;;;;4978784;28;20211;-73
2022/01/22 07:56:12;;;;;;;6.50;3.37;;;5.50;99.90;;;;;;4984184;28;20196;-72
2022/01/22 07:58:38;;;;;;;6.17;3.60;;;5.50;99.90;;;;;;4973909;28;20191;-72
2022/01/22 08:01:04;;;;;;;5.40;3.20;;;5.60;99.90;;;;;;4975912;28;20640;-73
2022/01/22 08:03:30;;;;;;;7.57;5.57;;;5.50;99.90;;;;;;4977919;28;20220;-73
2022/01/22 08:05:55;;;;;;;9.03;7.40;;;5.50;99.90;;;;;;4978805;28;20195;-72
2022/01/22 08:08:21;;;;;;;7.97;6.17;;;5.50;99.90;;;;;;4961140;28;20188;-72
2022/01/22 08:10:47;;;;;;;6.30;4.87;;;5.50;99.90;;;;;;4978187;28;20185;-73
2022/01/22 08:13:12;;;;;;;6.50;3.90;;;5.50;99.90;;;;;;4977834;28;20184;-73
2022/01/22 08:15:38;;;;;;;4.03;2.90;;;5.50;99.90;;;;;;4979907;28;20298;-72
2022/01/22 08:18:06;;;;;;;4.10;3.17;;;5.50;99.90;;;;;;4981529;28;20219;-73
2022/01/22 08:20:32;;;;;;;6.03;3.47;;;5.50;99.90;;;;;;4972811;28;20181;-73
2022/01/22 08:22:57;;;;;;;6.03;4.20;;;5.60;99.90;;;;;;4979801;28;20216;-72
2022/01/22 08:25:23;;;;;;;6.73;4.33;;;5.60;99.90;;;;;;4974573;28;20259;-74
2022/01/22 08:30:21;;;;;;;6.10;3.53;;;5.60;99.90;;;;;;4977191;28;20185;-72
2022/01/22 08:33:08;;;;;;;7.50;5.27;;;5.60;99.90;;;;;;4975773;28;20193;-73
2022/01/22 08:35:53;;;;;;;5.87;4.20;;;5.60;99.90;;;;;;4969231;28;20204;-74
2022/01/22 08:38:21;;;;;;;5.50;3.50;;;5.80;99.90;;;;;;4972474;28;20196;-72
2022/01/22 08:40:46;;;;;;;5.73;3.20;;;5.70;99.90;;;;;;4976776;28;20192;-73
2022/01/22 08:43:12;;;;;;;5.47;3.30;;;5.80;99.90;;;;;;4970699;28;20266;-72
2022/01/22 08:45:38;;;;;;;9.40;3.90;;;5.80;99.90;;;;;;4974059;28;21126;-73
2022/01/22 08:48:04;;;;;;;6.00;3.37;;;5.90;99.90;;;;;;4970238;28;20869;-72
2022/01/22 08:50:30;;;;;;;4.43;3.20;;;5.80;99.90;;;;;;4972229;28;20189;-72
2022/01/22 08:52:55;;;;;;;5.23;3.20;;;5.80;99.90;;;;;;4971686;28;20606;-72
2022/01/22 08:55:21;;;;;;;6.67;3.37;;;5.80;99.90;;;;;;4970895;28;20195;-73
2022/01/22 08:57:49;;;;;;;6.07;3.10;;;5.80;99.90;;;;;;4973739;28;20594;-72
2022/01/22 09:00:17;;;;;;;3.80;2.70;;;6.00;99.90;;;;;;4973648;28;20220;-73
2022/01/22 09:02:44;;;;;;;5.40;3.17;;;6.00;99.90;;;;;;4973602;28;20229;-72
2022/01/22 09:05:10;;;;;;;6.87;3.83;;;6.00;99.90;;;;;;4970622;28;20974;-72
2022/01/22 09:07:36;;;;;;;6.83;4.00;;;6.10;99.90;;;;;;4976253;28;20193;-73
2022/01/22 09:10:03;;;;;;;5.10;3.30;;;6.10;99.90;;;;;;4974054;28;20204;-73
2022/01/22 09:12:28;;;;;;;5.23;3.70;;;6.20;99.90;;;;;;4976585;28;20287;-73
2022/01/22 09:14:55;;;;;;;5.63;3.70;;;6.20;99.90;;;;;;4976260;28;20288;-73
2022/01/22 09:17:21;;;;;;;6.83;3.77;;;6.30;99.90;;;;;;4970402;28;20251;-72
2022/01/22 09:19:47;;;;;;;8.27;3.97;;;6.20;99.90;;;;;;4974840;28;20192;-73
2022/01/22 09:22:13;;;;;;;6.90;4.40;;;6.20;99.90;;;;;;4974490;28;20208;-72
2022/01/22 09:24:40;;;;;;;5.87;4.00;;;6.20;99.90;;;;;;4974577;28;20216;-74
2022/01/22 09:27:06;;;;;;;6.00;3.30;;;6.10;99.90;;;;;;4969520;28;20235;-75
2022/01/22 09:29:34;;;;;;;3.80;2.87;;;6.10;99.90;;;;;;4974553;28;20189;-72
2022/01/22 09:32:00;;;;;;;4.40;3.20;;;6.10;99.90;;;;;;4970579;28;20685;-72
2022/01/22 09:34:26;;;;;;;6.83;4.17;;;6.00;99.90;;;;;;4977285;28;20282;-73
2022/01/22 09:36:51;;;;;;;4.37;3.03;;;6.00;99.90;;;;;;4975376;28;20176;-74
2022/01/22 09:39:17;;;;;;;3.33;2.60;;;6.00;99.90;;;;;;4974010;28;20235;-72
2022/01/22 09:41:43;;;;;;;4.50;3.00;;;5.90;99.90;;;;;;4973038;28;20196;-75
2022/01/22 09:44:09;;;;;;;4.10;2.57;;;5.90;99.90;;;;;;4973905;28;20209;-74
2022/01/22 09:46:36;;;;;;;4.10;2.33;;;6.00;99.90;;;;;;4974586;28;20184;-73
2022/01/22 09:49:02;;;;;;;3.77;2.67;;;6.00;99.90;;;;;;4974922;28;20188;-72
2022/01/22 09:51:27;;;;;;;3.83;3.00;;;6.00;99.90;;;;;;4973892;28;20191;-72
2022/01/22 09:53:53;;;;;;;4.83;3.00;;;6.10;99.90;;;;;;4969850;28;20296;-71
2022/01/22 09:56:22;;;;;;;5.67;2.87;;;6.10;99.90;;;;;;4974500;28;20205;-72
2022/01/22 09:58:49;;;;;;;4.10;2.40;;;6.20;99.90;;;;;;4967637;28;20184;-71
2022/01/22 10:01:25;;;;;;;5.07;2.70;;;6.20;99.90;;;;;;4973969;28;20192;-71
2022/01/22 10:03:54;;;;;;;4.73;2.40;;;6.20;99.90;;;;;;4973635;28;20714;-72
2022/01/22 10:06:23;;;;;;;4.63;2.50;;;6.20;99.90;;;;;;4973908;28;20184;-73
2022/01/22 10:08:54;;;;;;;5.57;2.90;;;6.20;99.90;;;;;;4975902;28;20200;-72
2022/01/22 10:11:22;;;;;;;5.27;2.73;;;6.20;99.90;;;;;;4973884;28;20228;-74
2022/01/22 10:13:51;;;;;;;6.13;2.27;;;6.30;99.90;;;;;;4956589;28;20223;-72
2022/01/22 10:16:29;;;;;;;5.80;2.60;;;6.30;99.90;;;;;;4974030;28;20196;-71
2022/01/22 10:19:11;;;;;;;4.13;2.37;;;6.20;99.90;;;;;;4954674;28;20216;-72
2022/01/22 10:21:40;;;;;;;4.37;2.30;;;6.20;99.90;;;;;;4970063;28;20223;-73
2022/01/22 10:24:35;;;;;;;4.33;2.60;;;6.20;99.90;;;;;;4969362;28;20315;-74
2022/01/22 10:27:33;;;;;;;2.33;1.63;;;6.20;99.90;;;;;;4965916;28;20188;-73
2022/01/22 10:30:07;;;;;;;6.13;2.97;;;6.20;99.90;;;;;;4954912;28;20220;-72
2022/01/22 10:35:15;;;;;;;7.33;3.70;;;6.20;99.90;;;;;;4975519;28;20547;-72
2022/01/22 10:37:41;;;;;;;3.77;2.60;;;6.10;99.90;;;;;;4975898;28;20271;-73
2022/01/22 10:40:21;;;;;;;4.50;2.70;;;6.20;99.90;;;;;;4970299;28;20189;-72
2022/01/22 10:42:48;;;;;;;4.90;2.47;;;6.10;99.90;;;;;;4974867;28;20744;-76
2022/01/22 10:45:22;;;;;;;4.10;2.70;;;6.10;99.90;;;;;;4964983;28;20204;-72
2022/01/22 10:47:48;;;;;;;4.77;2.60;;;6.10;99.90;;;;;;4945544;28;20188;-72
2022/01/22 10:50:22;;;;;;;5.53;3.30;;;6.10;99.90;;;;;;4974050;28;20196;-72
2022/01/22 10:52:55;;;;;;;4.93;3.57;;;6.10;99.90;;;;;;4969956;28;20608;-73
2022/01/22 10:55:21;;;;;;;4.03;2.80;;;6.10;99.90;;;;;;4971429;28;20546;-73
2022/01/22 10:58:06;;;;;;;4.67;2.70;;;6.00;99.90;;;;;;4966168;28;20185;-73
2022/01/22 11:00:31;;;;;;;6.83;3.97;;;6.00;99.90;;;;;;4978533;28;20621;-73
2022/01/22 11:02:57;;;;;;;5.73;3.07;;;6.00;99.90;;;;;;4968072;28;20292;-73
2022/01/22 11:05:37;;;;;;;3.97;2.70;;;6.00;99.90;;;;;;4971451;28;20567;-72
2022/01/22 11:08:13;;;;;;;3.60;2.60;;;6.10;99.90;;;;;;4974140;28;20646;-73
2022/01/22 11:10:40;;;;;;;3.07;2.40;;;6.10;99.90;;;;;;4974245;28;20628;-73
2022/01/22 11:13:05;;;;;;;4.53;3.00;;;6.10;99.90;;;;;;4974876;28;20272;-73
2022/01/22 11:15:31;;;;;;;4.63;3.03;;;6.20;99.90;;;;;;4968635;28;20486;-74
2022/01/22 11:17:59;;;;;;;3.83;2.63;;;6.30;99.90;;;;;;4974247;28;20383;-73
2022/01/22 11:20:25;;;;;;;3.57;2.33;;;6.20;99.90;;;;;;4976284;28;20192;-74
2022/01/22 11:22:52;;;;;;;3.27;2.70;;;6.20;99.90;;;;;;4978600;28;20244;-73
2022/01/22 11:25:19;;;;;;;4.83;2.53;;;6.20;99.90;;;;;;4973600;28;20201;-74
2022/01/22 11:27:46;;;;;;;4.53;2.90;;;6.20;99.90;;;;;;4982317;28;20224;-73
2022/01/22 11:30:15;;;;;;;3.50;2.43;;;6.20;99.90;;;;;;4978943;28;20261;-73
2022/01/22 11:32:49;;;;;;;3.40;2.57;;;6.20;99.90;;;;;;4978438;28;20185;-73
2022/01/22 11:35:21;;;;;;;3.83;2.43;;;6.20;99.90;;;;;;4979373;28;20576;-73
2022/01/22 11:37:50;;;;;;;4.20;2.33;;;6.20;99.90;;;;;;4978192;28;20192;-73
2022/01/22 11:40:19;;;;;;;3.47;2.40;;;6.20;99.90;;;;;;4977489;28;20675;-74
2022/01/22 11:43:06;;;;;;;3.63;2.70;;;6.20;99.90;;;;;;4982353;28;20240;-74
2022/01/22 11:45:40;;;;;;;3.53;2.20;;;6.20;99.90;;;;;;4974279;28;20215;-74
2022/01/22 11:48:27;;;;;;;3.57;2.30;;;6.20;99.90;;;;;;4970951;28;20669;-74
2022/01/22 11:50:55;;;;;;;3.27;2.50;;;6.30;99.90;;;;;;4984431;28;20177;-74
2022/01/22 11:53:32;;;;;;;4.43;2.97;;;6.30;99.90;;;;;;4973294;28;20208;-74
2022/01/22 11:56:10;;;;;;;4.13;2.53;;;6.40;99.90;;;;;;4977932;28;20549;-74
2022/01/22 11:59:01;;;;;;;6.13;3.23;;;6.40;99.90;;;;;;4976331;28;20227;-73
2022/01/22 12:01:52;;;;;;;6.10;3.00;;;6.40;99.90;;;;;;4977684;28;20311;-74
2022/01/22 12:04:50;;;;;;;4.57;2.60;;;6.40;99.90;;;;;;4983744;28;20224;-76
2022/01/22 12:07:17;;;;;;;3.97;2.63;;;6.40;99.90;;;;;;4972810;28;20204;-77
2022/01/22 12:10:33;;;;;;;4.40;2.33;;;6.50;99.90;;;;;;4979489;28;20181;-76
2022/01/22 12:16:40;;;;;;;4.83;3.33;;;6.40;99.90;;;;;;4975265;28;20219;-73
2022/01/22 12:22:48;;;;;;;4.47;2.93;;;6.40;99.90;;;;;;4961263;28;20209;-74
2022/01/22 12:25:22;;;;;;;8.23;3.70;;;6.40;99.90;;;;;;4971892;28;20694;-74
2022/01/22 12:27:53;;;;;;;3.83;2.47;;;6.50;99.90;;;;;;4975770;28;20223;-73
2022/01/22 12:30:33;;;;;;;4.40;3.00;;;6.50;99.90;;;;;;4972953;28;20283;-73
2022/01/22 12:33:00;;;;;;;9.07;4.60;;;6.50;99.90;;;;;;4974582;28;20200;-74
2022/01/22 12:35:33;;;;;;;7.23;2.53;;;6.50;99.90;;;;;;4977962;28;20267;-73
2022/01/22 12:38:38;;;;;;;6.27;2.90;;;6.50;99.90;;;;;;4975863;28;20238;-73
2022/01/22 12:41:46;;;;;;;4.10;3.23;;;6.50;99.90;;;;;;4974862;28;20243;-73
2022/01/22 12:44:28;;;;;;;4.70;2.93;;;6.40;99.90;;;;;;4971290;28;20241;-73
2022/01/22 12:47:04;;;;;;;4.23;3.27;;;6.40;99.90;;;;;;4974438;28;20208;-74
2022/01/22 12:49:30;;;;;;;8.50;4.87;;;6.40;99.90;;;;;;4973239;28;20187;-74
2022/01/22 12:51:58;;;;;;;5.00;3.97;;;6.40;99.90;;;;;;4976355;28;20555;-74
2022/01/22 12:54:37;;;;;;;5.60;3.90;;;6.50;99.90;;;;;;4971843;28;20200;-74
2022/01/22 12:57:11;;;;;;;4.23;3.27;;;6.40;99.90;;;;;;4970705;28;20185;-73
2022/01/22 13:00:08;;;;;;;4.50;3.67;;;6.30;99.90;;;;;;4975182;28;20670;-74
2022/01/22 13:02:55;;;;;;;4.47;3.37;;;6.30;99.90;;;;;;4967551;28;20256;-74
2022/01/22 13:05:23;;;;;;;6.93;3.60;;;6.40;99.90;;;;;;4969491;28;20668;-75
2022/01/22 13:07:53;;;;;;;5.90;4.10;;;6.30;99.90;;;;;;4974628;28;20211;-73
2022/01/22 13:10:27;;;;;;;5.13;3.17;;;6.30;99.90;;;;;;4973229;28;20367;-73
2022/01/22 13:12:55;;;;;;;4.63;3.37;;;6.30;99.90;;;;;;4977919;28;20184;-74
2022/01/22 13:15:20;;;;;;;5.00;3.83;;;6.30;99.90;;;;;;4968527;28;20192;-74
2022/01/22 13:17:52;;;;;;;5.70;3.93;;;6.30;99.90;;;;;;4976039;28;20196;-74
2022/01/22 13:20:26;;;;;;;4.93;3.73;;;6.30;99.90;;;;;;4975334;28;20222;-74
2022/01/22 13:22:53;;;;;;;7.80;4.93;;;6.30;99.90;;;;;;4973224;28;20727;-74
2022/01/22 13:25:20;;;;;;;5.70;3.97;;;6.30;99.90;;;;;;4968689;28;20224;-73
2022/01/22 13:28:04;;;;;;;5.23;4.23;;;6.20;99.90;;;;;;4971508;28;20259;-73
2022/01/22 13:30:38;;;;;;;4.77;3.77;;;6.30;99.90;;;;;;4970063;28;20185;-74
2022/01/22 13:33:19;;;;;;;3.43;2.90;;;6.40;99.90;;;;;;4948703;28;20193;-74
2022/01/22 13:36:08;;;;;;;4.60;3.60;;;6.40;99.90;;;;;;4956323;28;20227;-72
2022/01/22 13:49:27;;;;;;;2.87;2.43;;;6.50;99.90;;;;;;4971452;28;20280;-72
2022/01/22 13:51:55;;;;;;;3.43;2.30;;;6.60;99.90;;;;;;4968983;28;20185;-73
2022/01/22 13:54:28;;;;;;;3.50;2.40;;;6.60;99.90;;;;;;4970958;28;20198;-74
2022/01/22 13:56:58;;;;;;;2.70;2.03;;;6.60;99.90;;;;;;4971449;28;20215;-74
2022/01/22 13:59:52;;;;;;;4.23;2.20;;;6.70;99.90;;;;;;4970555;28;20295;-73
2022/01/22 14:02:51;;;;;;;5.10;2.90;;;6.60;99.90;;;;;;4970448;28;20263;-73
2022/01/22 14:05:17;;;;;;;3.77;2.57;;;6.60;99.90;;;;;;4968312;28;20706;-73
2022/01/22 14:07:47;;;;;;;3.10;2.40;;;6.60;99.90;;;;;;4971850;28;20180;-75
2022/01/22 14:10:18;;;;;;;3.43;2.57;;;6.70;99.90;;;;;;4970014;28;20183;-73
2022/01/22 14:12:49;;;;;;;2.50;2.10;;;6.60;99.90;;;;;;4972640;28;20327;-73
2022/01/22 14:15:39;;;;;;;2.30;1.97;;;6.60;99.90;;;;;;4968068;28;20718;-75
2022/01/22 14:18:20;;;;;;;2.43;1.80;;;6.60;99.90;;;;;;4969117;28;20286;-74
2022/01/22 14:21:18;;;;;;;2.70;2.07;;;6.50;99.90;;;;;;4968780;28;20186;-75
2022/01/22 14:23:44;;;;;;;2.03;1.73;;;6.50;99.90;;;;;;4959251;28;20311;-73
2022/01/22 14:26:27;;;;;;;1.90;1.70;;;6.60;99.90;;;;;;4951002;28;20603;-74
2022/01/22 14:28:58;;;;;;;1.60;1.50;;;6.50;99.90;;;;;;4969507;28;20607;-75
2022/01/22 14:31:33;;;;;;;3.77;1.30;;;6.50;99.90;;;;;;4971334;28;20711;-73
2022/01/22 14:34:08;;;;;;;1.60;1.50;;;6.50;99.90;;;;;;4974692;28;20214;-73
2022/01/22 14:36:47;;;;;;;2.43;1.87;;;6.60;99.90;;;;;;4968691;28;20184;-74
2022/01/22 14:44:46;;;;;;;3.13;2.43;;;6.50;99.90;;;;;;4975689;28;20214;-73
2022/01/22 14:47:23;;;;;;;3.80;2.90;;;6.40;99.90;;;;;;4969712;28;20680;-73
2022/01/22 14:49:59;;;;;;;3.73;2.13;;;6.40;99.90;;;;;;4970250;28;20271;-73
2022/01/22 14:52:26;;;;;;;4.10;3.03;;;6.40;99.90;;;;;;4964970;28;20207;-74
2022/01/22 14:54:54;;;;;;;4.07;3.07;;;6.40;99.90;;;;;;4979583;28;20206;-73
2022/01/22 14:57:35;;;;;;;3.50;2.23;;;6.40;99.90;;;;;;4976468;28;20192;-73
2022/01/22 15:00:06;;;;;;;4.60;2.40;;;6.30;99.90;;;;;;4972364;28;20196;-73
2022/01/22 15:02:36;;;;;;;3.03;1.97;;;6.20;99.90;;;;;;4976155;28;20268;-73
2022/01/22 15:05:08;;;;;;;4.13;2.10;;;6.20;99.90;;;;;;4977602;28;20231;-73
2022/01/22 15:07:34;;;;;;;4.77;2.87;;;6.20;99.90;;;;;;4957400;28;20618;-73
2022/01/22 15:10:00;;;;;;;8.47;5.20;;;6.20;99.90;;;;;;4977090;28;20191;-73
2022/01/22 15:12:27;;;;;;;6.70;4.03;;;6.10;99.90;;;;;;4978380;28;20188;-72